createdAt,value
2022-08-20T00:05:59.360Z,100170.13
2022-08-20T00:12:02.977Z,100163.97
2022-08-20T00:18:06.654Z,100169.16
2022-08-20T00:24:08.650Z,100158.03
2022-08-20T00:30:13.458Z,100158.06
2022-08-20T00:36:21.549Z,100151.09
2022-08-20T00:42:23.603Z,100153.41
2022-08-20T00:48:33.316Z,100158.50
2022-08-20T00:54:45.851Z,100150.03
2022-08-20T01:00:49.748Z,100150.75
2022-08-20T01:06:52.597Z,100148.56
2022-08-20T01:12:59.248Z,100145.56
2022-08-20T01:19:03.196Z,100143.25
2022-08-20T01:25:50.820Z,100135.97
2022-08-20T01:31:53.132Z,100125.72
2022-08-20T01:37:55.883Z,100117.81
2022-08-20T01:43:58.834Z,100124.13
2022-08-20T01:50:08.248Z,100122.53
2022-08-20T01:56:23.342Z,100119.88
2022-08-20T02:02:26.553Z,100127.28
2022-08-20T02:08:28.944Z,100109.25
2022-08-20T02:14:31.351Z,100102.78
2022-08-20T02:20:34.627Z,100103.19
2022-08-20T02:26:38.022Z,100102.47
2022-08-20T02:32:43.031Z,100090.50
2022-08-20T02:38:46.842Z,100084.63
2022-08-20T02:44:48.801Z,100087.75
2022-08-20T02:50:57.764Z,100092.03
2022-08-20T02:56:59.784Z,100105.53
2022-08-20T03:03:02.462Z,100106.31
2022-08-20T03:09:06.721Z,100102.06
2022-08-20T03:15:17.250Z,100114.81
2022-08-20T03:21:20.126Z,100123.31
2022-08-20T03:27:24.829Z,100134.78
2022-08-20T03:33:32.618Z,100135.47
2022-08-20T03:39:35.778Z,100134.34
2022-08-20T03:45:41.094Z,100139.69
2022-08-20T03:51:57.050Z,100143.97
2022-08-20T03:58:03.476Z,100141.53
2022-08-20T04:04:05.443Z,100137.28
2022-08-20T04:10:14.848Z,100131.19
2022-08-20T04:16:16.813Z,100132.34
2022-08-20T04:22:18.790Z,100140.50
2022-08-20T04:28:27.437Z,100137.28
2022-08-20T04:34:31.266Z,100141.16
2022-08-20T04:40:54.488Z,100144.94
2022-08-20T04:46:56.978Z,100154.09
2022-08-20T04:53:00.506Z,100165.19
